Time;durP1;ratioP1;P1;durP2;ratioP2;P2;SDS_P1;SDS_P2;PMS_P1;PMS_P2;Temp;Humidity;BMP_temperature;BMP_pressure;BME280_temperature;BME280_humidity;BME280_pressure;Samples;Min_cycle;Max_cycle;Signal;HPM_P1;HPM_P2
2022/02/06 00:00:36;;;;;;;6.57;1.98;;;10.10;80.40;;;;;;5012259;28;20522;-75
2022/02/06 00:03:02;;;;;;;7.88;2.30;;;10.10;80.40;;;;;;5035033;28;20120;-74
2022/02/06 00:05:28;;;;;;;7.93;2.50;;;10.10;80.50;;;;;;5013991;28;20029;-75
2022/02/06 00:07:53;;;;;;;7.57;3.08;;;10.10;80.40;;;;;;5029343;28;20029;-75
2022/02/06 00:10:20;;;;;;;10.35;3.78;;;10.10;80.50;;;;;;5027359;28;20025;-74
2022/02/06 00:12:46;;;;;;;8.55;3.78;;;10.10;80.50;;;;;;5027309;28;20030;-75
2022/02/06 00:15:12;;;;;;;8.38;3.22;;;10.10;80.60;;;;;;5028637;28;20029;-76
2022/02/06 00:17:37;;;;;;;8.50;3.03;;;10.10;80.70;;;;;;5010486;28;20040;-76
2022/02/06 00:20:05;;;;;;;7.60;3.40;;;10.10;80.70;;;;;;5026629;28;20372;-77
2022/02/06 00:30:31;;;;;;;6.97;2.92;;;10.10;80.80;;;;;;5026998;28;20037;-75
2022/02/06 00:33:23;;;;;;;7.55;2.92;;;10.10;81.30;;;;;;5027425;28;20552;-74
2022/02/06 00:38:23;;;;;;;9.63;3.08;;;10.10;80.90;;;;;;5027402;28;20033;-75
2022/02/06 00:41:11;;;;;;;8.00;2.75;;;10.10;80.90;;;;;;5009379;28;20037;-74
2022/02/06 00:43:37;;;;;;;7.28;2.60;;;10.10;81.00;;;;;;5027505;28;20079;-75
2022/02/06 00:46:05;;;;;;;8.20;3.13;;;10.10;81.00;;;;;;5009181;28;20410;-75
2022/02/06 00:48:34;;;;;;;7.18;2.85;;;10.10;81.00;;;;;;5025512;28;20036;-74
2022/02/06 00:53:31;;;;;;;6.30;2.70;;;10.10;81.00;;;;;;5027746;28;20578;-75
2022/02/06 00:55:57;;;;;;;7.05;2.75;;;10.10;81.10;;;;;;5027238;28;20036;-75
2022/02/06 00:58:22;;;;;;;8.20;3.10;;;10.10;81.20;;;;;;5025909;28;20036;-74
2022/02/06 01:00:49;;;;;;;8.00;2.58;;;10.10;81.20;;;;;;5017802;28;20027;-74
2022/02/06 01:03:15;;;;;;;6.05;2.65;;;10.10;81.20;;;;;;5014976;28;20033;-75
2022/02/06 01:05:41;;;;;;;6.43;2.60;;;10.10;81.20;;;;;;5027061;28;20037;-76
2022/02/06 01:08:07;;;;;;;7.30;2.67;;;10.10;81.20;;;;;;5025970;28;20033;-75
2022/02/06 01:10:33;;;;;;;6.20;2.45;;;10.10;81.30;;;;;;5034258;28;20021;-75
2022/02/06 01:13:12;;;;;;;7.03;2.45;;;10.10;81.30;;;;;;5033135;28;20036;-75
2022/02/06 01:15:38;;;;;;;7.00;2.70;;;10.10;81.30;;;;;;5025937;28;20578;-75
2022/02/06 01:18:08;;;;;;;7.55;2.60;;;10.10;81.40;;;;;;5038761;28;20116;-75
2022/02/06 01:20:42;;;;;;;7.15;2.60;;;10.10;81.40;;;;;;5025121;28;20022;-76
2022/02/06 01:23:24;;;;;;;5.88;2.15;;;10.00;82.00;;;;;;5025819;28;20433;-75
2022/02/06 01:26:04;;;;;;;6.75;2.42;;;10.10;81.50;;;;;;5031718;28;20060;-75
2022/02/06 01:28:41;;;;;;;5.43;2.20;;;10.10;81.40;;;;;;5024239;28;20032;-75
2022/02/06 01:33:45;;;;;;;6.22;2.25;;;10.10;81.60;;;;;;5026519;28;20041;-75
2022/02/06 01:38:59;;;;;;;5.20;2.22;;;10.00;81.70;;;;;;5026175;28;20057;-75
2022/02/06 01:41:26;;;;;;;6.32;2.33;;;10.10;81.70;;;;;;5026635;28;20025;-76
2022/02/06 01:44:01;;;;;;;5.95;2.40;;;10.10;81.80;;;;;;5018103;28;20025;-75
2022/02/06 01:46:44;;;;;;;7.45;2.80;;;10.00;81.70;;;;;;5026789;28;20033;-75
2022/02/06 02:03:00;;;;;;;5.15;2.25;;;10.10;82.00;;;;;;5026868;28;20048;-76
2022/02/06 02:14:09;;;;;;;4.50;2.30;;;10.10;82.00;;;;;;4965633;28;20031;-75
2022/02/06 02:17:27;;;;;;;6.32;2.50;;;10.00;82.00;;;;;;5000361;28;20120;-76
2022/02/06 02:25:08;;;;;;;7.50;2.42;;;10.10;82.20;;;;;;5026392;28;20109;-76
2022/02/06 02:48:52;;;;;;;6.57;2.67;;;10.00;82.50;;;;;;5030393;28;20029;-76
2022/02/06 02:51:19;;;;;;;6.30;2.20;;;10.10;82.70;;;;;;5029461;28;20025;-75
2022/02/06 02:53:53;;;;;;;4.80;2.15;;;10.10;82.80;;;;;;5028820;28;20214;-75
2022/02/06 02:59:01;;;;;;;5.50;2.40;;;10.00;82.70;;;;;;5030406;28;20445;-75
2022/02/06 03:03:52;;;;;;;4.50;2.30;;;10.10;82.90;;;;;;5029841;28;20104;-75
2022/02/06 03:06:18;;;;;;;6.47;2.78;;;10.10;82.80;;;;;;5040419;28;20557;-75
2022/02/06 03:08:46;;;;;;;5.75;2.38;;;10.00;82.80;;;;;;5028803;28;20052;-76
2022/02/06 03:11:11;;;;;;;5.90;2.65;;;10.10;82.90;;;;;;5030639;28;20037;-76
2022/02/06 03:18:44;;;;;;;4.80;2.10;;;10.00;82.90;;;;;;5030467;28;20033;-76
2022/02/06 03:21:17;;;;;;;5.60;2.60;;;10.10;83.00;;;;;;5029275;28;20021;-75
2022/02/06 03:23:48;;;;;;;5.32;2.40;;;10.10;83.00;;;;;;5036351;28;20029;-76
2022/02/06 03:26:14;;;;;;;4.95;2.50;;;10.10;83.00;;;;;;5029985;28;20036;-76
2022/02/06 03:28:39;;;;;;;5.38;2.25;;;10.10;83.00;;;;;;5012046;28;20391;-75
2022/02/06 03:31:05;;;;;;;6.50;2.38;;;10.10;83.00;;;;;;5029241;28;20122;-75
2022/02/06 03:33:31;;;;;;;6.30;2.40;;;10.10;83.00;;;;;;5029692;28;20026;-76
2022/02/06 03:35:57;;;;;;;5.65;2.53;;;10.10;83.10;;;;;;5030119;28;20033;-75
2022/02/06 03:38:22;;;;;;;6.05;2.28;;;10.10;83.10;;;;;;5016135;28;20108;-76
2022/02/06 03:40:54;;;;;;;4.78;2.20;;;10.10;83.70;;;;;;5027620;28;20136;-76
2022/02/06 03:43:34;;;;;;;5.43;2.47;;;10.10;83.20;;;;;;5032599;28;20026;-76
2022/02/06 03:46:08;;;;;;;4.68;2.53;;;10.10;83.20;;;;;;5023970;28;20165;-76
2022/02/06 03:48:50;;;;;;;5.40;2.40;;;10.10;83.20;;;;;;5008257;28;20511;-75
2022/02/06 03:51:19;;;;;;;5.35;2.50;;;10.10;83.20;;;;;;5024548;28;20060;-75
2022/02/06 03:53:47;;;;;;;5.88;2.40;;;10.00;83.20;;;;;;5028855;28;20034;-76
2022/02/06 03:56:13;;;;;;;5.75;2.53;;;10.10;83.20;;;;;;5028669;28;20546;-76
2022/02/06 03:58:38;;;;;;;4.85;2.28;;;10.00;83.20;;;;;;5030199;28;20128;-75
2022/02/06 04:01:04;;;;;;;5.65;2.47;;;10.00;83.20;;;;;;5028698;28;20032;-76
2022/02/06 04:03:30;;;;;;;5.40;2.20;;;10.00;83.40;;;;;;5024653;28;20067;-75
2022/02/06 04:05:55;;;;;;;4.78;1.98;;;10.00;83.40;;;;;;5013291;28;20041;-76
2022/02/06 04:08:21;;;;;;;3.53;1.98;;;10.00;83.40;;;;;;5020904;28;20124;-75
2022/02/06 04:10:50;;;;;;;6.28;2.33;;;10.00;83.40;;;;;;5028704;28;20037;-75
2022/02/06 04:13:23;;;;;;;4.60;1.95;;;10.00;83.90;;;;;;5011332;28;20043;-76
2022/02/06 04:15:56;;;;;;;5.90;2.15;;;10.00;83.90;;;;;;5028975;28;20108;-76
2022/02/06 04:18:50;;;;;;;6.78;2.50;;;10.00;83.40;;;;;;5030706;28;20036;-75
2022/02/06 04:21:07;;;;;;;5.22;2.40;;;10.10;83.50;;;;;;5046155;28;20490;-76
2022/02/06 04:23:33;;;;;;;6.88;2.75;;;10.00;83.40;;;;;;5039256;28;20033;-75
2022/02/06 04:25:59;;;;;;;4.95;2.30;;;10.00;83.50;;;;;;5024455;28;20025;-75
2022/02/06 04:28:24;;;;;;;6.75;2.75;;;10.00;83.40;;;;;;5026957;28;20034;-75
2022/02/06 04:30:50;;;;;;;8.20;3.05;;;10.10;83.40;;;;;;5027968;28;20109;-76
2022/02/06 04:33:15;;;;;;;6.82;2.67;;;10.00;83.40;;;;;;5034660;28;20037;-75
2022/02/06 04:35:41;;;;;;;5.50;2.70;;;10.10;83.50;;;;;;5011115;28;20025;-76
2022/02/06 04:41:00;;;;;;;7.40;2.78;;;10.00;83.50;;;;;;5027473;28;20037;-75
2022/02/06 04:49:41;;;;;;;5.95;2.72;;;10.00;83.50;;;;;;5008099;28;20045;-74
2022/02/06 05:15:58;;;;;;;5.47;2.80;;;10.00;83.90;;;;;;5028008;28;20116;-75
2022/02/06 05:29:17;;;;;;;6.03;2.15;;;10.00;84.00;;;;;;5026980;28;20060;-74
2022/02/06 05:34:17;;;;;;;4.70;2.10;;;10.00;84.10;;;;;;5027333;28;20025;-75
2022/02/06 05:36:43;;;;;;;4.60;1.80;;;10.00;84.10;;;;;;5025514;28;20040;-75
2022/02/06 05:39:08;;;;;;;4.57;1.90;;;10.00;84.20;;;;;;5026835;28;20034;-75
2022/02/06 05:41:34;;;;;;;5.32;2.00;;;10.10;84.20;;;;;;5026312;28;20091;-76
2022/02/06 05:44:00;;;;;;;4.90;1.88;;;10.00;84.20;;;;;;5025129;28;20499;-75
2022/02/06 05:46:25;;;;;;;5.95;1.83;;;10.00;84.20;;;;;;5025373;28;20021;-75
2022/02/06 05:48:51;;;;;;;3.70;1.90;;;10.00;84.10;;;;;;5026631;28;20491;-75
2022/02/06 05:51:16;;;;;;;4.15;1.70;;;10.00;84.20;;;;;;5008825;28;20040;-75
2022/02/06 05:53:43;;;;;;;4.88;1.63;;;10.00;84.10;;;;;;5025690;28;20037;-75
2022/02/06 05:56:08;;;;;;;4.88;1.40;;;10.00;84.20;;;;;;5029139;28;20026;-76
2022/02/06 05:58:34;;;;;;;4.32;1.70;;;10.00;84.20;;;;;;5014459;28;20060;-75
2022/02/06 06:01:00;;;;;;;4.28;1.60;;;10.00;84.20;;;;;;5025382;28;20033;-76
2022/02/06 06:03:26;;;;;;;3.35;1.50;;;10.00;84.30;;;;;;5026419;28;20037;-75
2022/02/06 06:05:51;;;;;;;3.40;1.60;;;10.10;84.40;;;;;;5027022;28;20034;-76
2022/02/06 06:08:17;;;;;;;5.07;1.65;;;10.00;84.30;;;;;;5030089;28;20509;-75
2022/02/06 06:10:42;;;;;;;4.00;1.63;;;10.00;84.30;;;;;;5024476;28;20770;-76
2022/02/06 06:13:09;;;;;;;3.47;1.48;;;10.00;84.30;;;;;;5025526;28;20090;-75
2022/02/06 06:15:35;;;;;;;3.47;1.70;;;10.00;84.40;;;;;;5025103;28;20124;-75
2022/02/06 06:18:04;;;;;;;4.20;1.70;;;10.00;84.40;;;;;;5026442;28;20123;-75
2022/02/06 06:20:32;;;;;;;2.65;1.50;;;10.00;84.40;;;;;;5026746;28;20036;-74
2022/02/06 06:22:58;;;;;;;3.70;1.60;;;10.00;84.40;;;;;;5030300;28;20028;-75
2022/02/06 06:25:26;;;;;;;2.72;1.40;;;10.00;84.40;;;;;;5019339;28;20112;-76
2022/02/06 06:27:52;;;;;;;3.50;1.40;;;10.00;84.30;;;;;;5029717;28;20033;-75
2022/02/06 06:30:18;;;;;;;4.35;1.73;;;10.00;84.40;;;;;;5022119;28;20021;-76
2022/02/06 06:32:43;;;;;;;3.17;1.60;;;10.10;84.40;;;;;;5030533;28;20037;-75
2022/02/06 06:35:09;;;;;;;3.30;1.40;;;10.00;84.40;;;;;;5029955;28;20033;-76
2022/02/06 06:37:41;;;;;;;2.95;1.30;;;10.00;84.40;;;;;;5028845;28;20037;-75
2022/02/06 06:40:07;;;;;;;3.45;1.73;;;10.10;84.50;;;;;;5010713;28;20061;-75
2022/02/06 06:42:33;;;;;;;3.20;1.40;;;10.00;84.40;;;;;;5032743;28;20025;-75
2022/02/06 06:44:58;;;;;;;2.92;1.27;;;10.00;84.50;;;;;;5028491;28;20025;-76
2022/02/06 06:47:24;;;;;;;2.80;1.40;;;10.00;84.50;;;;;;5030296;28;20417;-75
2022/02/06 06:49:49;;;;;;;3.65;1.33;;;10.00;84.50;;;;;;5028656;28;20537;-75
2022/02/06 06:52:15;;;;;;;4.13;1.60;;;10.00;84.60;;;;;;5030311;28;20517;-75
2022/02/06 06:54:45;;;;;;;3.25;1.58;;;10.00;84.70;;;;;;5032267;28;20025;-75
2022/02/06 07:04:42;;;;;;;4.85;1.95;;;10.00;84.70;;;;;;5029489;28;20045;-76
2022/02/06 07:07:07;;;;;;;3.60;1.75;;;10.00;84.70;;;;;;5028909;28;20060;-77
2022/02/06 07:09:33;;;;;;;3.20;1.52;;;10.00;84.80;;;;;;5039076;28;20448;-76
2022/02/06 07:11:58;;;;;;;4.05;1.92;;;10.00;84.80;;;;;;5030092;28;20037;-76
2022/02/06 07:14:27;;;;;;;3.00;1.52;;;10.00;84.80;;;;;;5009233;28;20495;-77
2022/02/06 07:16:53;;;;;;;2.83;1.50;;;10.00;84.90;;;;;;5021849;28;20037;-76
2022/02/06 07:19:18;;;;;;;5.50;1.60;;;10.00;84.80;;;;;;5029009;28;20044;-75
2022/02/06 07:21:44;;;;;;;4.35;1.73;;;10.00;84.80;;;;;;5029017;28;20029;-75
2022/02/06 07:24:09;;;;;;;7.68;2.00;;;10.00;84.80;;;;;;5028646;28;20022;-75
2022/02/06 07:26:35;;;;;;;6.45;1.85;;;10.10;84.80;;;;;;5027404;28;20510;-74
2022/02/06 07:29:02;;;;;;;5.15;1.83;;;10.00;84.80;;;;;;5012657;28;20552;-75
2022/02/06 07:31:27;;;;;;;4.53;1.70;;;10.00;85.00;;;;;;5028304;28;20030;-75
2022/02/06 07:33:54;;;;;;;5.72;2.10;;;10.00;85.00;;;;;;5029236;28;20083;-76
2022/02/06 07:36:20;;;;;;;3.63;1.80;;;10.00;85.10;;;;;;5029240;28;20029;-74
2022/02/06 07:38:46;;;;;;;4.95;2.00;;;10.00;85.10;;;;;;5029507;28;20033;-79
2022/02/06 07:41:12;;;;;;;4.18;1.80;;;10.00;85.10;;;;;;5029615;28;20040;-75
2022/02/06 07:43:38;;;;;;;4.72;1.83;;;10.00;85.20;;;;;;5026556;28;20510;-76
2022/02/06 07:46:09;;;;;;;7.07;1.90;;;10.00;85.30;;;;;;5009126;28;20610;-76
2022/02/06 07:48:35;;;;;;;4.43;1.92;;;10.00;85.80;;;;;;5009243;28;20092;-76
2022/02/06 07:51:03;;;;;;;4.97;2.05;;;10.00;85.30;;;;;;5009196;28;20061;-77
2022/02/06 07:53:28;;;;;;;8.20;2.20;;;10.00;85.40;;;;;;5010837;28;20032;-76
2022/02/06 07:55:54;;;;;;;5.38;2.40;;;10.00;85.40;;;;;;5010860;28;20105;-76
2022/02/06 07:58:20;;;;;;;5.28;2.10;;;10.00;85.40;;;;;;5018136;28;20037;-76
2022/02/06 08:00:45;;;;;;;4.28;2.05;;;10.00;85.50;;;;;;5012139;28;20025;-75
2022/02/06 08:03:11;;;;;;;6.93;2.65;;;10.00;85.50;;;;;;5013434;28;20165;-76
2022/02/06 08:05:36;;;;;;;4.15;2.05;;;10.00;85.50;;;;;;5012479;28;20030;-76
2022/02/06 08:08:02;;;;;;;4.38;2.25;;;10.00;85.50;;;;;;5010537;28;20036;-77
2022/02/06 08:10:28;;;;;;;4.40;2.40;;;10.00;85.50;;;;;;5030120;28;20035;-75
2022/02/06 08:12:56;;;;;;;5.88;2.40;;;10.00;85.50;;;;;;5047330;28;20474;-77
2022/02/06 08:15:23;;;;;;;4.07;2.10;;;10.00;85.50;;;;;;5027635;28;20603;-74
2022/02/06 08:17:49;;;;;;;4.55;2.35;;;10.00;85.50;;;;;;5049296;28;20092;-76
2022/02/06 08:20:16;;;;;;;4.93;2.28;;;10.00;85.50;;;;;;5040817;28;20025;-76
2022/02/06 08:22:42;;;;;;;5.35;2.40;;;10.00;85.50;;;;;;5012291;28;20072;-78
2022/02/06 08:25:10;;;;;;;6.50;2.40;;;10.00;85.60;;;;;;5029528;28;20030;-76
2022/02/06 08:27:36;;;;;;;5.28;2.30;;;10.00;85.60;;;;;;5029511;28;20033;-75
2022/02/06 08:30:01;;;;;;;6.32;2.80;;;10.00;85.60;;;;;;5028547;28;20029;-75
2022/02/06 08:32:28;;;;;;;4.38;2.42;;;10.00;85.70;;;;;;5013546;28;20033;-75
2022/02/06 08:34:55;;;;;;;4.95;2.42;;;10.00;85.70;;;;;;5039236;28;20398;-75
2022/02/06 08:37:22;;;;;;;5.90;2.60;;;10.00;85.80;;;;;;5044774;28;20495;-75
2022/02/06 08:39:48;;;;;;;5.15;2.55;;;10.00;85.80;;;;;;5021083;28;20123;-74
2022/02/06 08:42:14;;;;;;;6.13;2.53;;;10.00;85.90;;;;;;5010857;28;20112;-75
2022/02/06 08:44:42;;;;;;;5.03;2.60;;;10.00;85.90;;;;;;5022175;28;20052;-74
2022/02/06 08:47:10;;;;;;;3.53;2.13;;;10.00;85.90;;;;;;4997316;28;20831;-75
2022/02/06 08:49:37;;;;;;;4.03;2.42;;;10.00;86.00;;;;;;5011599;28;20026;-75
2022/02/06 08:52:03;;;;;;;4.90;2.20;;;10.00;86.00;;;;;;5028985;28;20021;-75
2022/02/06 08:54:32;;;;;;;5.43;2.53;;;10.00;86.00;;;;;;5026117;28;20120;-75
2022/02/06 08:57:01;;;;;;;4.40;2.13;;;10.00;86.10;;;;;;5018293;28;20076;-75
2022/02/06 08:59:32;;;;;;;4.82;2.47;;;10.00;86.00;;;;;;5023169;28;20072;-76
2022/02/06 09:02:00;;;;;;;4.90;2.22;;;10.00;86.10;;;;;;5010878;28;20127;-76
2022/02/06 09:04:27;;;;;;;3.90;2.00;;;10.00;86.10;;;;;;5000278;28;20017;-75
2022/02/06 09:06:57;;;;;;;4.53;2.25;;;10.00;86.10;;;;;;5000714;28;20022;-74
2022/02/06 09:09:22;;;;;;;4.45;2.13;;;10.00;86.20;;;;;;5008676;28;20025;-76
2022/02/06 09:11:48;;;;;;;4.50;2.25;;;10.10;86.30;;;;;;4992717;28;20021;-77
2022/02/06 09:14:17;;;;;;;4.68;2.20;;;10.00;86.20;;;;;;4996287;28;20541;-76
2022/02/06 09:16:42;;;;;;;4.32;2.13;;;10.00;86.20;;;;;;5020052;28;20029;-76
2022/02/06 09:19:08;;;;;;;4.05;2.20;;;10.00;86.20;;;;;;5010297;28;20032;-76
2022/02/06 09:21:34;;;;;;;4.45;2.10;;;10.00;86.20;;;;;;5018950;28;20030;-77
2022/02/06 09:23:59;;;;;;;4.53;2.30;;;10.10;86.30;;;;;;5006685;28;20032;-76
2022/02/06 09:26:26;;;;;;;5.07;2.13;;;10.00;86.30;;;;;;5010794;28;20746;-76
2022/02/06 09:28:51;;;;;;;4.80;2.20;;;10.00;86.30;;;;;;5029981;28;20068;-74
2022/02/06 09:31:23;;;;;;;3.33;2.10;;;10.00;86.40;;;;;;5043350;28;20056;-75
2022/02/06 09:36:14;;;;;;;3.30;2.10;;;10.00;86.40;;;;;;5026192;28;20256;-74
2022/02/06 09:38:40;;;;;;;3.90;2.00;;;10.00;86.40;;;;;;5009171;28;20091;-75
2022/02/06 09:41:05;;;;;;;3.33;2.10;;;10.00;86.50;;;;;;5027389;28;20044;-75
2022/02/06 09:43:32;;;;;;;3.63;1.95;;;10.00;86.50;;;;;;5029467;28;20148;-74
2022/02/06 09:46:00;;;;;;;3.80;2.00;;;10.00;86.50;;;;;;5029613;28;20575;-75
2022/02/06 09:48:29;;;;;;;3.63;2.00;;;10.00;86.50;;;;;;5029838;28;20041;-75
2022/02/06 09:50:56;;;;;;;2.97;1.80;;;10.00;86.50;;;;;;5028711;28;20037;-75
2022/02/06 09:53:21;;;;;;;3.85;1.83;;;10.00;86.30;;;;;;5040617;28;20037;-75
2022/02/06 09:55:47;;;;;;;4.70;2.00;;;10.10;86.30;;;;;;5036926;28;20146;-76
2022/02/06 09:58:38;;;;;;;3.83;1.90;;;10.00;86.20;;;;;;5030987;28;20037;-75
2022/02/06 10:01:00;;;;;;;5.47;1.98;;;10.00;86.30;;;;;;5016839;28;20079;-76
2022/02/06 10:03:30;;;;;;;3.42;2.00;;;10.00;86.40;;;;;;5045510;28;20021;-76
2022/02/06 10:05:58;;;;;;;3.75;1.83;;;10.00;86.50;;;;;;5020439;28;20032;-75
2022/02/06 10:08:31;;;;;;;3.90;1.70;;;10.00;86.50;;;;;;5018133;28;20033;-75
2022/02/06 10:11:00;;;;;;;3.28;1.90;;;10.10;86.60;;;;;;5022392;28;20150;-76
2022/02/06 10:13:26;;;;;;;2.42;1.55;;;10.10;86.60;;;;;;5013289;28;20648;-76
2022/02/06 10:15:51;;;;;;;3.08;1.65;;;10.10;86.60;;;;;;5030206;28;20085;-77
2022/02/06 10:18:17;;;;;;;3.58;1.80;;;10.00;86.60;;;;;;5012140;28;20033;-76
2022/02/06 10:20:48;;;;;;;3.50;1.90;;;10.10;86.60;;;;;;5012710;28;20160;-77
2022/02/06 10:23:31;;;;;;;4.13;2.42;;;10.00;86.60;;;;;;5025878;28;20059;-76
2022/02/06 10:26:06;;;;;;;11.40;3.58;;;10.10;86.70;;;;;;5030999;28;20036;-76
2022/02/06 10:28:37;;;;;;;6.47;3.60;;;10.00;86.60;;;;;;5030476;28;20076;-78
2022/02/06 10:31:05;;;;;;;6.50;3.70;;;10.10;86.70;;;;;;5039755;28;20087;-78
2022/02/06 10:33:47;;;;;;;6.22;3.97;;;10.10;86.70;;;;;;5032209;28;20039;-78
2022/02/06 10:36:16;;;;;;;6.75;4.15;;;10.00;86.60;;;;;;5010565;28;20542;-76
2022/02/06 10:38:41;;;;;;;6.90;4.20;;;10.10;86.70;;;;;;5007155;28;20486;-77
2022/02/06 10:41:17;;;;;;;6.65;4.10;;;10.00;86.70;;;;;;5012323;28;20030;-76
2022/02/06 10:44:13;;;;;;;6.63;3.83;;;10.10;86.80;;;;;;5012846;28;20034;-79
2022/02/06 10:46:58;;;;;;;6.70;3.53;;;10.00;86.80;;;;;;5011797;28;20402;-75
2022/02/06 10:49:25;;;;;;;6.47;3.38;;;10.00;86.90;;;;;;5024355;28;20021;-75
2022/02/06 10:52:00;;;;;;;5.90;2.97;;;10.00;86.80;;;;;;5014945;28;20029;-78
2022/02/06 10:54:33;;;;;;;5.13;3.10;;;10.00;86.90;;;;;;4997339;28;20022;-77
2022/02/06 10:57:02;;;;;;;5.97;2.85;;;10.00;86.90;;;;;;5000286;28;20109;-76
2022/02/06 10:59:36;;;;;;;5.10;3.10;;;10.00;86.90;;;;;;4992987;28;20026;-76
2022/02/06 11:02:06;;;;;;;5.70;3.00;;;10.10;86.80;;;;;;5014347;28;20032;-77
2022/02/06 11:04:33;;;;;;;5.75;3.20;;;10.10;86.70;;;;;;4992123;28;20026;-77
2022/02/06 11:07:14;;;;;;;14.20;9.35;;;10.10;86.00;;;;;;5011800;28;20764;-77
2022/02/06 11:09:39;;;;;;;18.23;12.50;;;10.10;86.00;;;;;;5026496;28;20044;-77
2022/02/06 11:12:11;;;;;;;24.23;16.77;;;10.10;85.90;;;;;;5007797;28;20025;-76
2022/02/06 11:14:45;;;;;;;61.30;47.00;;;10.20;85.80;;;;;;4997788;28;20021;-76
2022/02/06 11:17:25;;;;;;;99.07;77.05;;;10.20;85.60;;;;;;5025315;28;20388;-75
2022/02/06 11:20:04;;;;;;;264.17;221.25;;;10.30;85.30;;;;;;5002487;28;20505;-77
2022/02/06 11:22:30;;;;;;;492.80;438.92;;;10.40;85.10;;;;;;5008677;28;20022;-75
2022/02/06 11:24:57;;;;;;;512.88;457.58;;;10.40;85.00;;;;;;4998620;28;20022;-77
2022/02/06 11:27:24;;;;;;;435.65;382.70;;;10.50;85.00;;;;;;5024212;28;20026;-76
2022/02/06 11:29:50;;;;;;;374.70;321.23;;;10.60;85.10;;;;;;5008099;28;20033;-76
2022/02/06 11:32:16;;;;;;;271.77;241.88;;;10.60;84.90;;;;;;5001961;28;20033;-77
2022/02/06 11:34:43;;;;;;;241.75;210.95;;;10.70;85.10;;;;;;5031036;28;20822;-76
2022/02/06 11:46:15;;;;;;;162.95;143.90;;;10.90;84.40;;;;;;5034350;28;20576;-75
2022/02/06 11:48:44;;;;;;;154.77;138.02;;;10.90;84.30;;;;;;5017197;28;20030;-75
2022/02/06 11:51:18;;;;;;;140.23;125.15;;;10.90;84.10;;;;;;5018495;28;20018;-75
2022/02/06 11:53:44;;;;;;;125.03;111.80;;;10.90;84.00;;;;;;4994851;28;20033;-76
2022/02/06 11:56:22;;;;;;;107.55;96.18;;;11.00;84.00;;;;;;5005883;28;20048;-77
2022/02/06 11:58:52;;;;;;;107.38;95.88;;;11.00;83.90;;;;;;5017953;28;20250;-74
2022/02/06 12:01:18;;;;;;;106.85;95.38;;;11.00;83.80;;;;;;5015261;28;20036;-77
2022/02/06 12:03:55;;;;;;;125.53;112.10;;;11.10;83.70;;;;;;4994281;28;20116;-76
2022/02/06 12:06:30;;;;;;;172.38;148.55;;;11.00;83.60;;;;;;5012960;28;20554;-74
2022/02/06 12:08:58;;;;;;;180.40;160.48;;;11.00;83.60;;;;;;5009991;28;20028;-76
2022/02/06 12:11:25;;;;;;;179.00;159.82;;;11.00;83.60;;;;;;5026843;28;20387;-76
2022/02/06 12:14:19;;;;;;;168.98;150.68;;;11.10;83.60;;;;;;5020032;28;20082;-75
2022/02/06 12:16:52;;;;;;;157.45;140.52;;;11.10;83.50;;;;;;5018688;28;20107;-76
2022/02/06 12:19:32;;;;;;;152.60;136.30;;;11.20;83.60;;;;;;5009494;28;20384;-76
2022/02/06 12:22:26;;;;;;;142.20;127.05;;;11.20;83.60;;;;;;5010496;28;20052;-77
2022/02/06 12:24:53;;;;;;;131.95;117.93;;;11.20;83.50;;;;;;5027912;28;20060;-77
2022/02/06 12:27:26;;;;;;;128.77;115.10;;;11.30;83.30;;;;;;5027364;28;20129;-76
2022/02/06 12:30:06;;;;;;;116.47;104.38;;;11.30;83.20;;;;;;5026947;28;20037;-77
2022/02/06 12:32:39;;;;;;;107.47;96.07;;;11.30;83.20;;;;;;5009807;28;20037;-78
2022/02/06 12:37:55;;;;;;;92.70;82.88;;;11.40;83.10;;;;;;5027205;28;20124;-75
2022/02/06 12:40:24;;;;;;;89.03;79.60;;;11.40;82.90;;;;;;4989495;28;20521;-76
2022/02/06 12:42:57;;;;;;;82.30;73.60;;;11.40;82.90;;;;;;5010050;28;20029;-76
2022/02/06 12:45:24;;;;;;;76.93;68.63;;;11.40;82.90;;;;;;5019342;28;20554;-78
2022/02/06 12:47:55;;;;;;;68.80;61.60;;;11.40;82.90;;;;;;5026507;28;20091;-77
2022/02/06 12:50:23;;;;;;;66.90;59.75;;;11.30;82.80;;;;;;5028081;28;20106;-77
2022/02/06 12:52:50;;;;;;;64.25;57.25;;;11.40;82.80;;;;;;5025521;28;20551;-75
2022/02/06 12:55:17;;;;;;;149.93;132.25;;;11.30;82.60;;;;;;5024908;28;20040;-78
2022/02/06 12:57:51;;;;;;;259.65;231.30;;;11.40;82.90;;;;;;5028621;28;20033;-76
2022/02/06 13:00:23;;;;;;;372.52;330.35;;;11.30;82.80;;;;;;5027614;28;20108;-77
2022/02/06 13:02:49;;;;;;;387.77;340.67;;;11.30;83.00;;;;;;5009728;28;20434;-76
2022/02/06 13:05:15;;;;;;;299.42;266.77;;;11.30;83.00;;;;;;5027227;28;20032;-77
2022/02/06 13:07:42;;;;;;;215.48;191.68;;;11.30;83.00;;;;;;5009509;28;20554;-77
2022/02/06 13:10:08;;;;;;;198.85;176.55;;;11.30;83.00;;;;;;5027868;28;20028;-76
2022/02/06 13:12:46;;;;;;;175.93;151.05;;;11.30;82.90;;;;;;5008968;28;20031;-76
2022/02/06 13:20:34;;;;;;;156.05;128.27;;;11.40;82.80;;;;;;5037181;28;20032;-76
2022/02/06 13:23:27;;;;;;;174.23;129.90;;;11.40;82.90;;;;;;5014824;28;20037;-77
2022/02/06 13:26:22;;;;;;;145.30;111.18;;;11.50;82.90;;;;;;5024714;28;20861;-76
2022/02/06 13:31:36;;;;;;;141.98;111.75;;;11.50;82.50;;;;;;5026184;28;20033;-77
2022/02/06 13:36:37;;;;;;;119.35;82.88;;;11.70;82.20;;;;;;5032872;28;20074;-77
2022/02/06 13:39:13;;;;;;;105.35;70.40;;;11.80;81.90;;;;;;5036665;28;20056;-77
2022/02/06 13:41:40;;;;;;;118.72;62.40;;;12.00;81.50;;;;;;5020391;28;20025;-77
2022/02/06 13:44:18;;;;;;;150.07;59.58;;;12.10;80.70;;;;;;5031405;28;20022;-78
2022/02/06 13:46:45;;;;;;;233.73;62.60;;;12.30;80.00;;;;;;5029734;28;20026;-78
2022/02/06 13:49:11;;;;;;;277.10;62.00;;;12.50;79.20;;;;;;5011812;28;20039;-76
2022/02/06 13:51:48;;;;;;;333.70;64.05;;;12.60;78.80;;;;;;5026972;28;20037;-77
2022/02/06 13:54:14;;;;;;;331.95;63.90;;;12.60;78.30;;;;;;5010481;28;20103;-77
2022/02/06 13:56:40;;;;;;;329.92;61.60;;;12.60;78.20;;;;;;5027848;28;20029;-77
2022/02/06 13:59:09;;;;;;;359.23;61.70;;;12.70;78.00;;;;;;5008742;28;20085;-77
2022/02/06 14:01:41;;;;;;;313.55;55.03;;;12.80;77.60;;;;;;5009122;28;20025;-76
2022/02/06 14:04:25;;;;;;;304.88;52.80;;;12.90;77.30;;;;;;5009041;28;20032;-76
2022/02/06 14:06:59;;;;;;;266.20;48.85;;;13.00;76.90;;;;;;5009770;28;20029;-76
2022/02/06 14:09:31;;;;;;;248.95;45.28;;;13.10;76.60;;;;;;5026282;28;20766;-76
2022/02/06 14:12:02;;;;;;;267.60;45.58;;;13.10;76.30;;;;;;5009234;28;20095;-77
2022/02/06 14:14:29;;;;;;;235.65;42.47;;;13.20;76.00;;;;;;5005641;28;20030;-77
2022/02/06 14:16:56;;;;;;;224.05;41.08;;;13.20;75.60;;;;;;5018065;28;20092;-76
2022/02/06 14:19:34;;;;;;;205.15;37.17;;;13.30;75.60;;;;;;5012564;28;20033;-77
2022/02/06 14:22:00;;;;;;;187.57;34.35;;;13.30;75.20;;;;;;5022497;28;20021;-77
2022/02/06 14:24:26;;;;;;;174.82;32.13;;;13.40;74.90;;;;;;5025570;28;20022;-76
2022/02/06 14:27:05;;;;;;;169.77;32.17;;;13.40;74.90;;;;;;5017228;28;20038;-76
2022/02/06 14:29:31;;;;;;;140.20;29.10;;;13.50;74.80;;;;;;5014480;28;20049;-76
2022/02/06 14:32:22;;;;;;;157.95;29.50;;;13.50;74.50;;;;;;5023181;28;20552;-76
2022/02/06 14:35:08;;;;;;;130.60;28.90;;;13.50;74.40;;;;;;5026624;28;20499;-74
2022/02/06 14:37:51;;;;;;;131.18;26.35;;;13.50;74.20;;;;;;5029182;28;20482;-76
2022/02/06 14:43:15;;;;;;;109.13;22.23;;;13.60;74.10;;;;;;5030264;28;20072;-77
2022/02/06 14:45:52;;;;;;;99.50;23.35;;;13.50;74.10;;;;;;5035406;28;20029;-78
2022/02/06 14:48:18;;;;;;;103.30;22.70;;;13.60;74.10;;;;;;5031192;28;20065;-78
2022/02/06 14:50:49;;;;;;;97.90;20.33;;;13.60;74.00;;;;;;5030553;28;20044;-76
2022/02/06 14:53:16;;;;;;;107.53;21.10;;;13.60;73.90;;;;;;5032512;28;20056;-77
2022/02/06 14:55:43;;;;;;;93.07;19.95;;;13.60;73.80;;;;;;5044875;28;20036;-78
2022/02/06 14:58:09;;;;;;;89.00;19.30;;;13.60;74.10;;;;;;5028165;28;20029;-77
2022/02/06 15:00:36;;;;;;;83.10;18.60;;;13.50;74.10;;;;;;5027987;28;20160;-75
2022/02/06 15:03:02;;;;;;;85.90;17.75;;;13.60;74.20;;;;;;5023723;28;20562;-77
2022/02/06 15:05:28;;;;;;;68.72;15.27;;;13.50;74.00;;;;;;4999577;28;20182;-76
2022/02/06 15:07:54;;;;;;;58.25;15.15;;;13.50;74.00;;;;;;5007585;28;20817;-76
2022/02/06 15:10:20;;;;;;;61.78;15.30;;;13.50;74.00;;;;;;5015692;28;20117;-76
2022/02/06 15:12:45;;;;;;;51.63;13.68;;;13.50;74.10;;;;;;5023563;28;20116;-76
2022/02/06 15:15:12;;;;;;;54.05;14.73;;;13.50;73.90;;;;;;4995780;28;20028;-76
2022/02/06 15:17:38;;;;;;;61.13;14.05;;;13.50;74.30;;;;;;5025414;28;20087;-77
2022/02/06 15:20:04;;;;;;;51.80;13.27;;;13.40;74.40;;;;;;5030916;28;20486;-78
2022/02/06 15:22:29;;;;;;;53.35;12.20;;;13.30;74.70;;;;;;5027560;28;20044;-78
2022/02/06 15:24:55;;;;;;;41.92;11.38;;;13.30;74.90;;;;;;5012073;28;20447;-76
2022/02/06 15:27:20;;;;;;;50.55;11.27;;;13.20;75.00;;;;;;5032916;28;20025;-77